createdAt,value
2018-12-14T00:00:05.644Z,13.23
2018-12-14T00:02:32.822Z,13.73
2018-12-14T00:05:00.087Z,13.23
2018-12-14T00:07:27.458Z,12.77
2018-12-14T00:09:54.582Z,14.10
2018-12-14T00:12:21.703Z,13.10
2018-12-14T00:14:48.887Z,13.37
2018-12-14T00:17:16.011Z,13.13
2018-12-14T00:19:43.142Z,13.70
2018-12-14T00:22:10.326Z,13.50
2018-12-14T00:24:37.423Z,14.47
2018-12-14T00:27:04.795Z,14.23
2018-12-14T00:29:31.966Z,13.50
2018-12-14T00:31:59.098Z,12.67
2018-12-14T00:34:26.207Z,13.47
2018-12-14T00:36:53.441Z,13.30
2018-12-14T00:39:20.551Z,12.27
2018-12-14T00:41:51.917Z,13.93
2018-12-14T00:44:16.910Z,13.40
2018-12-14T00:46:44.047Z,13.67
2018-12-14T00:49:11.306Z,13.83
2018-12-14T00:51:38.459Z,13.70
2018-12-14T00:54:05.570Z,13.57
2018-12-14T00:56:32.663Z,14.40
2018-12-14T00:59:00.379Z,14.50
2018-12-14T01:01:27.495Z,13.30
2018-12-14T01:03:54.686Z,13.90
2018-12-14T01:06:21.830Z,13.97
2018-12-14T01:08:48.918Z,14.10
2018-12-14T01:11:16.011Z,14.07
2018-12-14T01:13:43.283Z,13.90
2018-12-14T01:16:10.366Z,14.03
2018-12-14T01:18:37.592Z,14.40
2018-12-14T01:21:04.733Z,13.27
2018-12-14T01:23:31.813Z,13.50
2018-12-14T01:25:58.905Z,14.57
2018-12-14T01:28:26.136Z,13.63
2018-12-14T01:30:53.254Z,13.67
2018-12-14T01:33:20.385Z,14.27
2018-12-14T01:35:47.587Z,14.20
2018-12-14T01:38:14.682Z,13.30
2018-12-14T01:40:41.898Z,13.17
2018-12-14T01:43:09.111Z,13.33
2018-12-14T01:45:36.239Z,13.60
2018-12-14T01:48:03.470Z,12.80
2018-12-14T01:50:30.645Z,13.33
2018-12-14T01:52:57.760Z,13.63
2018-12-14T01:55:24.858Z,13.27
2018-12-14T01:57:52.137Z,13.67
2018-12-14T02:00:19.255Z,14.07
2018-12-14T02:02:46.372Z,13.43
2018-12-14T02:05:13.604Z,13.33
2018-12-14T02:07:40.721Z,13.57
2018-12-14T02:10:07.938Z,14.20
2018-12-14T02:12:35.170Z,14.00
2018-12-14T02:15:02.318Z,13.30
2018-12-14T02:17:29.455Z,14.33
2018-12-14T02:19:56.760Z,14.77
2018-12-14T02:22:23.875Z,14.53
2018-12-14T02:24:50.996Z,14.87
2018-12-14T02:27:18.159Z,14.60
2018-12-14T02:29:45.340Z,13.90
2018-12-14T02:32:12.571Z,15.30
2018-12-14T02:34:40.138Z,15.27
2018-12-14T02:37:07.238Z,15.47
2018-12-14T02:39:34.359Z,15.77
2018-12-14T02:42:01.583Z,15.90
2018-12-14T02:44:28.774Z,14.70
2018-12-14T02:46:55.996Z,15.27
2018-12-14T02:49:23.159Z,16.53
2018-12-14T02:51:50.290Z,16.53
2018-12-14T02:54:17.510Z,15.80
2018-12-14T02:56:44.815Z,16.03
2018-12-14T02:59:11.938Z,16.23
2018-12-14T03:01:40.117Z,16.87
2018-12-14T03:04:07.384Z,16.47
2018-12-14T03:06:34.498Z,13.83
2018-12-14T03:09:01.611Z,16.20
2018-12-14T03:11:28.830Z,16.07
2018-12-14T03:13:55.937Z,17.47
2018-12-14T03:16:23.070Z,14.33
2018-12-14T03:18:50.302Z,15.27
2018-12-14T03:21:17.524Z,15.47
2018-12-14T03:23:44.621Z,16.10
2018-12-14T03:26:11.980Z,14.70
2018-12-14T03:28:39.107Z,15.33
2018-12-14T03:31:06.290Z,15.47
2018-12-14T03:33:33.687Z,15.23
2018-12-14T03:36:00.782Z,15.43
2018-12-14T03:38:27.885Z,15.80
2018-12-14T03:40:55.039Z,16.00
2018-12-14T03:43:22.138Z,14.67
2018-12-14T03:45:49.242Z,15.33
2018-12-14T03:48:16.492Z,15.00
2018-12-14T03:50:43.587Z,15.73
2018-12-14T03:53:10.755Z,14.97
2018-12-14T03:55:37.976Z,16.63
2018-12-14T03:58:05.084Z,15.63
2018-12-14T04:00:32.316Z,15.13
2018-12-14T04:02:59.818Z,14.87
2018-12-14T04:05:27.569Z,15.00
2018-12-14T04:07:54.674Z,15.30
2018-12-14T04:10:21.931Z,14.27
2018-12-14T04:12:49.049Z,14.50
2018-12-14T04:15:16.384Z,14.13
2018-12-14T04:17:43.552Z,14.40
2018-12-14T04:20:10.683Z,13.47
2018-12-14T04:22:37.920Z,13.90
2018-12-14T04:25:05.416Z,14.03
2018-12-14T04:27:32.629Z,13.30
2018-12-14T04:29:59.720Z,13.77
2018-12-14T04:32:26.955Z,13.13
2018-12-14T04:34:54.079Z,12.67
2018-12-14T04:37:21.218Z,12.83
2018-12-14T04:39:48.422Z,12.07
2018-12-14T04:42:15.551Z,13.40
2018-12-14T04:44:42.715Z,12.93
2018-12-14T04:47:10.299Z,13.70
2018-12-14T04:49:37.731Z,13.30
2018-12-14T04:52:09.477Z,13.93
2018-12-14T04:54:37.806Z,13.43
2018-12-14T04:57:04.919Z,12.57
2018-12-14T04:59:32.115Z,13.50
2018-12-14T05:01:59.239Z,14.30
2018-12-14T05:04:26.382Z,12.30
2018-12-14T05:06:53.631Z,12.07
2018-12-14T05:09:20.803Z,13.07
2018-12-14T05:11:47.930Z,13.90
2018-12-14T05:14:16.117Z,13.07
2018-12-14T05:16:43.252Z,13.10
2018-12-14T05:19:10.371Z,14.13
2018-12-14T05:21:37.915Z,14.00
2018-12-14T05:24:05.027Z,12.57
2018-12-14T05:26:32.159Z,13.87
2018-12-14T05:28:59.337Z,14.87
2018-12-14T05:31:26.514Z,14.00
2018-12-14T05:33:53.805Z,14.30
2018-12-14T05:36:22.188Z,14.97
2018-12-14T05:38:49.478Z,14.97
2018-12-14T05:41:16.663Z,16.27
2018-12-14T05:43:43.916Z,15.43
2018-12-14T05:46:11.051Z,15.00
2018-12-14T05:48:38.182Z,16.13
2018-12-14T05:51:05.491Z,16.57
2018-12-14T05:53:34.486Z,14.50
2018-12-14T05:56:04.457Z,14.57
2018-12-14T05:58:32.052Z,15.90
2018-12-14T06:00:59.359Z,16.63
2018-12-14T06:03:26.490Z,15.93
2018-12-14T06:05:53.727Z,15.70
2018-12-14T06:08:20.824Z,16.00
2018-12-14T06:10:47.934Z,15.80
2018-12-14T06:13:15.204Z,15.70
2018-12-14T06:15:42.426Z,17.87
2018-12-14T06:18:09.527Z,19.40
2018-12-14T06:20:36.712Z,20.87
2018-12-14T06:23:03.807Z,19.37
2018-12-14T06:25:31.120Z,19.10
2018-12-14T06:27:58.312Z,20.40
2018-12-14T06:30:25.411Z,20.10
2018-12-14T06:32:52.673Z,20.83
2018-12-14T06:35:20.598Z,21.60
2018-12-14T06:37:47.917Z,21.10
2018-12-14T06:40:15.062Z,19.83
2018-12-14T06:42:42.292Z,21.47
2018-12-14T06:45:09.948Z,20.77
2018-12-14T06:47:37.216Z,20.83
2018-12-14T06:50:04.585Z,22.63
2018-12-14T06:52:31.683Z,21.20
2018-12-14T06:54:58.829Z,21.33
2018-12-14T06:57:26.007Z,22.47
2018-12-14T06:59:53.133Z,21.83
2018-12-14T07:02:20.263Z,21.87
2018-12-14T07:04:47.484Z,22.40
2018-12-14T07:07:14.596Z,22.30
2018-12-14T07:09:41.698Z,22.47
2018-12-14T07:12:08.882Z,21.13
2018-12-14T07:14:36.131Z,21.20
2018-12-14T07:17:03.263Z,21.27
2018-12-14T07:19:30.438Z,20.63
2018-12-14T07:21:57.562Z,20.93
2018-12-14T07:24:24.683Z,21.53
2018-12-14T07:26:53.100Z,17.93
2018-12-14T07:29:20.226Z,21.87
2018-12-14T07:31:47.471Z,20.87
2018-12-14T07:34:14.651Z,21.77
2018-12-14T07:36:42.572Z,22.43
2018-12-14T07:39:09.692Z,20.97
2018-12-14T07:41:36.940Z,20.80
2018-12-14T07:44:04.168Z,20.87
2018-12-14T07:46:31.266Z,22.60
2018-12-14T07:48:58.577Z,22.47
2018-12-14T07:51:25.713Z,22.10
2018-12-14T07:53:52.819Z,21.97
2018-12-14T07:56:19.977Z,21.67
2018-12-14T07:58:47.288Z,20.87
2018-12-14T08:01:14.631Z,20.57
2018-12-14T08:03:41.905Z,22.87
2018-12-14T08:06:09.006Z,20.23
2018-12-14T08:08:36.098Z,22.03
2018-12-14T08:11:03.335Z,21.77
2018-12-14T08:13:34.834Z,20.97
2018-12-14T08:15:59.650Z,21.33
2018-12-14T08:18:26.914Z,21.17
2018-12-14T08:20:54.104Z,19.93
2018-12-14T08:23:21.256Z,20.50
2018-12-14T08:25:48.529Z,21.63
2018-12-14T08:28:15.658Z,21.37
2018-12-14T08:30:42.771Z,20.83
2018-12-14T08:33:09.956Z,22.33
2018-12-14T08:35:37.174Z,21.63
2018-12-14T08:38:04.350Z,21.90
2018-12-14T08:40:31.575Z,21.97
2018-12-14T08:42:58.667Z,21.70
2018-12-14T08:45:25.907Z,21.73
2018-12-14T08:47:53.474Z,20.83
2018-12-14T08:50:20.567Z,22.47
2018-12-14T08:52:47.679Z,21.97
2018-12-14T08:55:14.903Z,20.53
2018-12-14T08:57:41.997Z,21.30
2018-12-14T09:00:09.372Z,21.87
2018-12-14T09:02:36.532Z,21.77
2018-12-14T09:05:03.848Z,20.93
2018-12-14T09:07:30.942Z,21.80
2018-12-14T09:09:58.105Z,19.60
2018-12-14T09:12:25.239Z,21.47
2018-12-14T09:14:52.358Z,20.30
2018-12-14T09:17:19.601Z,20.03
2018-12-14T09:19:47.229Z,20.33
2018-12-14T09:22:14.351Z,22.30
2018-12-14T09:24:41.528Z,22.23
2018-12-14T09:27:08.609Z,23.10
2018-12-14T09:29:35.704Z,23.47
2018-12-14T09:32:03.172Z,20.80
2018-12-14T09:34:30.257Z,21.40
2018-12-14T09:36:57.360Z,20.07
2018-12-14T09:39:24.661Z,20.63
2018-12-14T09:41:51.763Z,18.87
2018-12-14T09:44:19.055Z,20.70
2018-12-14T09:46:46.213Z,21.00
2018-12-14T09:49:13.343Z,19.90
2018-12-14T09:51:40.454Z,20.00
2018-12-14T09:54:07.652Z,19.77
2018-12-14T09:56:34.948Z,19.30
2018-12-14T09:59:02.080Z,21.00
2018-12-14T10:01:29.230Z,19.03
2018-12-14T10:03:56.634Z,17.87
2018-12-14T10:06:24.003Z,16.77
2018-12-14T10:08:51.207Z,17.97
2018-12-14T10:11:18.523Z,16.23
2018-12-14T10:13:45.730Z,17.17
2018-12-14T10:16:13.137Z,17.37
2018-12-14T10:18:40.637Z,18.23
2018-12-14T10:21:08.194Z,18.37
2018-12-14T10:23:35.479Z,18.50
2018-12-14T10:26:02.675Z,17.43
2018-12-14T10:28:30.065Z,17.60
2018-12-14T10:30:57.554Z,17.43
2018-12-14T10:33:24.686Z,17.77
2018-12-14T10:35:51.943Z,18.70
2018-12-14T10:38:19.312Z,17.23
2018-12-14T10:40:46.526Z,18.03
2018-12-14T10:43:13.729Z,16.57
2018-12-14T10:45:41.211Z,17.47
2018-12-14T10:48:08.435Z,17.60
2018-12-14T10:50:39.745Z,15.27
2018-12-14T10:53:09.359Z,13.43
2018-12-14T10:55:36.556Z,17.67
2018-12-14T10:58:04.044Z,16.83
2018-12-14T11:00:37.227Z,17.30
2018-12-14T11:03:04.402Z,16.97
2018-12-14T11:05:31.504Z,17.63
2018-12-14T11:07:58.750Z,18.07
2018-12-14T11:10:25.875Z,17.83
2018-12-14T11:12:53.006Z,18.27
2018-12-14T11:15:20.154Z,16.13
2018-12-14T11:17:47.252Z,17.17
2018-12-14T11:20:14.379Z,16.50
2018-12-14T11:22:41.535Z,17.97
2018-12-14T11:25:08.768Z,17.43
2018-12-14T11:27:35.998Z,17.67
2018-12-14T11:30:03.452Z,17.23
2018-12-14T11:32:30.577Z,17.93
2018-12-14T11:34:57.774Z,17.97
2018-12-14T11:37:24.992Z,16.30
2018-12-14T11:39:52.519Z,17.43
2018-12-14T11:42:19.871Z,15.40
2018-12-14T11:44:47.475Z,16.20
2018-12-14T11:47:18.128Z,16.10
2018-12-14T11:49:44.867Z,16.97
2018-12-14T11:52:13.328Z,16.53
2018-12-14T11:54:42.094Z,16.73
2018-12-14T11:57:09.210Z,15.83
2018-12-14T11:59:36.371Z,16.80
2018-12-14T12:02:03.503Z,15.67
2018-12-14T12:04:30.628Z,15.90
2018-12-14T12:06:57.787Z,16.03
2018-12-14T12:09:25.021Z,17.53
2018-12-14T12:11:52.128Z,15.87
2018-12-14T12:14:19.330Z,14.17
2018-12-14T12:16:46.459Z,15.53
2018-12-14T12:19:13.558Z,16.53
2018-12-14T12:21:41.109Z,14.70
2018-12-14T12:24:08.245Z,15.30
2018-12-14T12:26:35.354Z,15.40
2018-12-14T12:29:02.547Z,15.43
2018-12-14T12:31:29.766Z,14.43
2018-12-14T12:33:56.893Z,14.53
2018-12-14T12:36:24.062Z,15.53
2018-12-14T12:38:51.192Z,14.67
2018-12-14T12:41:18.312Z,14.70
2018-12-14T12:43:45.648Z,14.53
2018-12-14T12:46:12.735Z,14.63
2018-12-14T12:48:40.160Z,14.00
2018-12-14T12:51:07.307Z,13.73
2018-12-14T12:53:34.580Z,13.13
2018-12-14T12:56:01.705Z,13.60
2018-12-14T12:58:28.873Z,12.77
2018-12-14T13:00:56.159Z,13.07
2018-12-14T13:03:23.264Z,13.57
2018-12-14T13:05:50.415Z,12.60
2018-12-14T13:08:17.599Z,12.83
2018-12-14T13:10:44.710Z,13.43
2018-12-14T13:13:12.036Z,12.57
2018-12-14T13:15:39.130Z,13.17
2018-12-14T13:18:06.244Z,12.77
2018-12-14T13:20:33.412Z,13.00
2018-12-14T13:23:00.623Z,12.20
2018-12-14T13:25:27.788Z,12.43
2018-12-14T13:27:54.967Z,11.83
2018-12-14T13:30:22.180Z,11.33
2018-12-14T13:32:49.276Z,11.23
2018-12-14T13:35:16.456Z,11.47
2018-12-14T13:37:43.587Z,11.37
2018-12-14T13:40:10.812Z,11.67
2018-12-14T13:42:37.975Z,11.07
2018-12-14T13:45:05.401Z,12.27
2018-12-14T13:47:32.566Z,11.30
2018-12-14T13:49:59.737Z,13.53
2018-12-14T13:52:26.871Z,12.70
2018-12-14T13:54:54.045Z,13.07
2018-12-14T13:57:21.223Z,14.43
2018-12-14T13:59:48.342Z,14.50
2018-12-14T14:02:15.450Z,14.70
2018-12-14T14:04:42.654Z,14.43
2018-12-14T14:07:09.783Z,13.77
2018-12-14T14:09:36.899Z,15.10
2018-12-14T14:12:04.190Z,15.80
2018-12-14T14:14:31.324Z,16.27
2018-12-14T14:16:58.639Z,16.67
2018-12-14T14:19:26.588Z,16.87
2018-12-14T14:21:53.688Z,15.30
2018-12-14T14:24:20.880Z,17.03
2018-12-14T14:26:48.048Z,17.53
2018-12-14T14:29:15.138Z,17.40
2018-12-14T14:31:42.229Z,19.00
2018-12-14T14:34:09.391Z,17.67
2018-12-14T14:36:36.504Z,18.60
2018-12-14T14:39:06.177Z,18.47
2018-12-14T14:41:34.149Z,17.50
2018-12-14T14:44:01.286Z,19.03
2018-12-14T14:46:28.490Z,18.80
2018-12-14T14:48:55.622Z,19.17
2018-12-14T14:51:23.434Z,20.07
2018-12-14T14:53:50.519Z,19.67
2018-12-14T14:56:17.667Z,19.73
2018-12-14T14:58:45.071Z,19.90
2018-12-14T15:01:12.167Z,21.40
2018-12-14T15:03:39.390Z,19.40
2018-12-14T15:06:06.485Z,19.57
2018-12-14T15:08:33.565Z,18.63
2018-12-14T15:11:00.698Z,19.00
2018-12-14T15:13:29.711Z,19.80
2018-12-14T15:15:57.019Z,19.60
2018-12-14T15:18:24.311Z,20.13
2018-12-14T15:20:51.466Z,20.30
2018-12-14T15:23:18.769Z,21.57
2018-12-14T15:25:46.079Z,20.17
2018-12-14T15:28:13.177Z,20.53
2018-12-14T15:30:40.312Z,21.37
2018-12-14T15:33:07.473Z,20.57
2018-12-14T15:35:34.591Z,22.10
2018-12-14T15:38:01.711Z,22.77
2018-12-14T15:40:28.841Z,22.47
2018-12-14T15:42:55.923Z,20.73
2018-12-14T15:45:23.020Z,21.63
2018-12-14T15:47:50.235Z,22.43
2018-12-14T15:50:17.343Z,21.33
2018-12-14T15:52:44.451Z,21.93
2018-12-14T15:55:11.766Z,23.30
2018-12-14T15:57:38.892Z,23.23
2018-12-14T16:00:06.324Z,23.33
2018-12-14T16:02:33.571Z,23.77
2018-12-14T16:05:00.738Z,23.40
2018-12-14T16:07:27.950Z,23.63
2018-12-14T16:09:55.126Z,23.37
2018-12-14T16:12:22.240Z,23.33
2018-12-14T16:14:49.370Z,24.37
2018-12-14T16:17:16.529Z,23.70
2018-12-14T16:19:43.697Z,23.90
2018-12-14T16:22:10.879Z,23.83
2018-12-14T16:24:38.103Z,25.50
2018-12-14T16:27:05.327Z,24.20
2018-12-14T16:29:33.017Z,24.90
2018-12-14T16:32:00.283Z,24.93
2018-12-14T16:34:27.382Z,25.13
2018-12-14T16:36:54.496Z,24.80
2018-12-14T16:39:21.783Z,24.03
2018-12-14T16:41:48.895Z,23.97
2018-12-14T16:44:16.027Z,25.40
2018-12-14T16:46:43.223Z,24.33
2018-12-14T16:49:10.415Z,25.90
2018-12-14T16:51:37.554Z,25.10
2018-12-14T16:54:06.470Z,24.07
2018-12-14T16:56:33.623Z,24.23
2018-12-14T16:59:01.024Z,24.87
2018-12-14T17:01:28.351Z,25.97
2018-12-14T17:03:55.545Z,25.27
2018-12-14T17:06:22.929Z,25.93
2018-12-14T17:08:50.114Z,27.07
2018-12-14T17:11:17.247Z,25.63
2018-12-14T17:13:44.391Z,26.03
2018-12-14T17:16:11.555Z,25.87
2018-12-14T17:18:38.678Z,26.27
2018-12-14T17:21:05.847Z,26.97
2018-12-14T17:23:34.314Z,25.17
2018-12-14T17:26:01.688Z,26.63
2018-12-14T17:28:28.898Z,25.00
2018-12-14T17:30:56.051Z,25.83
2018-12-14T17:33:23.176Z,27.43
2018-12-14T17:35:50.269Z,25.80
2018-12-14T17:38:17.448Z,25.53
2018-12-14T17:40:44.732Z,26.07
2018-12-14T17:43:11.952Z,25.87
2018-12-14T17:45:39.879Z,24.17
2018-12-14T17:48:07.431Z,26.63
2018-12-14T17:50:34.595Z,27.57
2018-12-14T17:53:02.846Z,26.60
2018-12-14T17:55:30.004Z,26.20
2018-12-14T17:57:57.193Z,25.83
2018-12-14T18:00:25.559Z,28.63
2018-12-14T18:02:52.664Z,26.73
2018-12-14T18:05:19.775Z,26.57
2018-12-14T18:07:46.943Z,27.27
2018-12-14T18:10:14.166Z,26.63
2018-12-14T18:12:41.303Z,26.70
2018-12-14T18:15:08.582Z,26.30
2018-12-14T18:17:36.025Z,27.50
2018-12-14T18:20:03.833Z,25.80
2018-12-14T18:22:31.556Z,26.60
2018-12-14T18:24:59.005Z,26.50
2018-12-14T18:27:26.262Z,28.67
2018-12-14T18:29:53.476Z,27.23
2018-12-14T18:32:20.687Z,24.77
2018-12-14T18:34:47.938Z,28.10
2018-12-14T18:37:15.187Z,27.73
2018-12-14T18:39:42.281Z,25.83
2018-12-14T18:42:09.391Z,26.63
2018-12-14T18:44:36.564Z,26.13
2018-12-14T18:47:03.792Z,27.67
2018-12-14T18:49:30.921Z,27.80
2018-12-14T18:51:59.250Z,27.17
2018-12-14T18:54:26.478Z,27.67
2018-12-14T18:56:53.595Z,26.23
2018-12-14T18:59:21.087Z,27.03
2018-12-14T19:01:48.311Z,27.30
2018-12-14T19:04:15.682Z,27.50
2018-12-14T19:06:42.863Z,27.13
2018-12-14T19:09:10.141Z,26.83
2018-12-14T19:11:37.378Z,26.40
2018-12-14T19:14:04.617Z,27.30
2018-12-14T19:16:31.835Z,26.73
2018-12-14T19:18:58.953Z,28.80
2018-12-14T19:21:26.252Z,27.27
2018-12-14T19:23:53.433Z,27.53
2018-12-14T19:26:20.607Z,28.07
2018-12-14T19:28:47.807Z,28.17
2018-12-14T19:31:15.057Z,27.70
2018-12-14T19:33:42.187Z,26.90
2018-12-14T19:36:09.367Z,27.57
2018-12-14T19:38:36.546Z,28.33
2018-12-14T19:41:03.752Z,29.03
2018-12-14T19:43:30.983Z,28.87
2018-12-14T19:45:58.166Z,28.33
2018-12-14T19:48:25.375Z,29.23
2018-12-14T19:50:52.583Z,29.40
2018-12-14T19:53:19.767Z,28.83
2018-12-14T19:55:47.004Z,30.97
2018-12-14T19:58:14.224Z,30.50
2018-12-14T20:00:41.442Z,30.80
2018-12-14T20:03:08.751Z,31.03
2018-12-14T20:05:35.976Z,30.77
2018-12-14T20:08:03.201Z,30.13
2018-12-14T20:10:30.354Z,29.23
2018-12-14T20:12:57.633Z,31.83
2018-12-14T20:15:24.837Z,31.57
2018-12-14T20:17:51.967Z,31.57
2018-12-14T20:20:19.272Z,29.60
2018-12-14T20:22:46.388Z,30.20
2018-12-14T20:25:13.512Z,30.93
2018-12-14T20:27:40.682Z,31.80
2018-12-14T20:30:08.048Z,30.93
2018-12-14T20:32:35.160Z,31.10
2018-12-14T20:35:02.571Z,31.33
2018-12-14T20:37:29.768Z,31.53
2018-12-14T20:39:57.009Z,31.57
2018-12-14T20:42:24.184Z,32.60
2018-12-14T20:44:51.315Z,31.33
2018-12-14T20:47:18.428Z,29.83
2018-12-14T20:49:45.602Z,30.90
2018-12-14T20:52:12.729Z,31.17
2018-12-14T20:54:39.928Z,29.83
2018-12-14T20:57:07.082Z,30.67
2018-12-14T20:59:34.573Z,30.67
2018-12-14T21:02:01.681Z,30.83
2018-12-14T21:04:29.044Z,30.73
2018-12-14T21:06:56.155Z,31.73
2018-12-14T21:09:23.276Z,31.37
2018-12-14T21:11:50.459Z,31.17
2018-12-14T21:14:17.698Z,30.87
2018-12-14T21:16:44.858Z,29.97
2018-12-14T21:19:12.031Z,31.17
2018-12-14T21:21:39.178Z,30.53
2018-12-14T21:24:06.327Z,32.73
2018-12-14T21:26:33.512Z,31.30
2018-12-14T21:29:00.615Z,30.93
2018-12-14T21:31:27.735Z,31.37
2018-12-14T21:33:54.908Z,30.37
2018-12-14T21:36:22.076Z,29.90
2018-12-14T21:38:49.175Z,31.40
2018-12-14T21:41:16.347Z,28.93
2018-12-14T21:43:43.465Z,30.07
2018-12-14T21:46:10.575Z,29.50
2018-12-14T21:48:37.847Z,29.13
2018-12-14T21:51:04.954Z,30.97
2018-12-14T21:53:32.057Z,30.17
2018-12-14T21:55:59.401Z,31.30
2018-12-14T21:58:26.518Z,29.83
2018-12-14T22:00:53.649Z,29.20
2018-12-14T22:03:20.932Z,29.07
2018-12-14T22:05:48.039Z,29.67
2018-12-14T22:08:15.688Z,27.87
2018-12-14T22:10:42.890Z,28.60
2018-12-14T22:13:10.046Z,29.80
2018-12-14T22:15:37.164Z,28.63
2018-12-14T22:18:04.495Z,28.67
2018-12-14T22:20:31.639Z,27.67
2018-12-14T22:22:58.750Z,27.87
2018-12-14T22:25:25.927Z,28.63
2018-12-14T22:27:53.056Z,29.20
2018-12-14T22:30:20.276Z,27.20
2018-12-14T22:32:47.586Z,29.00
2018-12-14T22:35:14.735Z,28.40
2018-12-14T22:37:41.846Z,29.87
2018-12-14T22:40:09.066Z,29.23
2018-12-14T22:42:36.215Z,29.10
2018-12-14T22:45:04.174Z,28.30
2018-12-14T22:47:31.402Z,30.40
2018-12-14T22:49:58.560Z,29.47
2018-12-14T22:52:25.780Z,28.70
2018-12-14T22:54:53.036Z,28.97
2018-12-14T22:57:20.283Z,29.23
2018-12-14T22:59:48.287Z,28.50
2018-12-14T23:02:15.600Z,28.10
2018-12-14T23:04:42.765Z,28.20
2018-12-14T23:07:09.862Z,29.03
2018-12-14T23:09:38.202Z,30.50
2018-12-14T23:12:05.386Z,28.47
2018-12-14T23:14:32.558Z,27.90
2018-12-14T23:16:59.772Z,28.53
2018-12-14T23:19:26.943Z,27.73
2018-12-14T23:21:54.162Z,29.43
2018-12-14T23:24:24.591Z,28.77
2018-12-14T23:26:51.796Z,27.67
2018-12-14T23:29:19.537Z,28.07
2018-12-14T23:31:46.862Z,26.97
2018-12-14T23:34:14.057Z,27.70
2018-12-14T23:36:41.257Z,28.00
2018-12-14T23:39:08.475Z,27.27
2018-12-14T23:41:35.607Z,26.27
2018-12-14T23:44:03.040Z,26.90
2018-12-14T23:46:30.273Z,27.73
2018-12-14T23:48:57.432Z,27.03
2018-12-14T23:51:24.604Z,25.90
2018-12-14T23:53:51.774Z,26.53
2018-12-14T23:56:18.935Z,26.13
2018-12-14T23:58:46.151Z,25.30
